Time;durP1;ratioP1;P1;durP2;ratioP2;P2;SDS_P1;SDS_P2;PMS_P1;PMS_P2;Temp;Humidity;BMP_temperature;BMP_pressure;BME280_temperature;BME280_humidity;BME280_pressure;Samples;Min_cycle;Max_cycle;Signal;HPM_P1;HPM_P2
2023/01/15 00:44:47;;;;;;;14.47;10.23;;;5.40;91.20;;;;;;5806130;24;20225;-84
2023/01/15 01:05:17;;;;;;;13.70;8.60;;;5.30;91.10;;;;;;5921711;23;20178;-86
2023/01/15 01:40:28;;;;;;;11.07;7.93;;;5.10;91.10;;;;;;6171445;22;20205;31
2023/01/15 02:00:48;;;;;;;11.63;7.57;;;4.90;91.60;;;;;;5895455;23;20497;-83
2023/01/15 02:36:47;;;;;;;12.57;7.67;;;4.60;92.30;;;;;;6049202;23;20178;-83
2023/01/15 03:01:31;;;;;;;12.67;7.67;;;4.60;91.30;;;;;;5889720;24;20221;-85
2023/01/15 03:22:26;;;;;;;11.97;7.63;;;4.60;91.20;;;;;;5872961;23;20172;-82
2023/01/15 03:47:22;;;;;;;10.80;6.90;;;4.80;90.40;;;;;;5664381;24;20957;-83
2023/01/15 04:38:32;;;;;;;11.83;6.53;;;4.90;90.30;;;;;;5797418;24;20186;-84
2023/01/15 04:48:21;;;;;;;10.53;5.40;;;4.80;90.10;;;;;;6183559;22;20672;-83
2023/01/15 05:08:17;;;;;;;7.70;4.73;;;4.80;90.20;;;;;;6124896;22;20706;31
2023/01/15 05:23:19;;;;;;;7.47;4.67;;;4.80;89.50;;;;;;6143194;23;20664;-83
2023/01/15 06:03:32;;;;;;;5.40;3.87;;;5.40;87.50;;;;;;6073367;23;20198;-87
2023/01/15 06:28:51;;;;;;;5.17;3.60;;;5.50;88.30;;;;;;6050867;23;20240;-87
2023/01/15 06:49:24;;;;;;;3.37;2.97;;;5.60;87.50;;;;;;6009738;23;20181;-86
2023/01/15 09:06:06;;;;;;;4.03;3.10;;;6.10;94.10;;;;;;5907502;23;20276;-84
2023/01/15 09:26:29;;;;;;;5.43;3.53;;;6.00;96.10;;;;;;5856416;24;20580;-85
2023/01/15 10:42:17;;;;;;;5.30;3.77;;;5.90;99.90;;;;;;5910926;23;20192;-84
2023/01/15 11:03:00;;;;;;;5.93;4.30;;;5.90;99.90;;;;;;5886641;24;20186;-86
2023/01/15 11:22:48;;;;;;;8.00;5.13;;;5.70;99.90;;;;;;5837937;24;20720;-86
2023/01/15 11:53:07;;;;;;;8.50;5.27;;;5.70;99.90;;;;;;5837666;23;20556;-87
2023/01/15 12:33:56;;;;;;;8.10;6.27;;;5.80;99.90;;;;;;5773386;24;20655;-84
2023/01/15 13:14:38;;;;;;;12.50;7.17;;;6.10;99.90;;;;;;5864089;24;20278;-88
2023/01/15 13:29:31;;;;;;;9.83;6.30;;;6.20;99.90;;;;;;6171165;22;20588;-87
2023/01/15 14:04:49;;;;;;;9.83;6.20;;;6.30;99.90;;;;;;6039704;23;20199;-86
2023/01/15 15:21:05;;;;;;;8.30;5.63;;;6.70;95.80;;;;;;5916199;23;20182;-86
2023/01/15 15:56:32;;;;;;;8.70;6.27;;;7.10;91.70;;;;;;5990397;23;20538;-86
2023/01/15 16:27:28;;;;;;;6.63;4.83;;;7.50;90.50;;;;;;5858909;24;20517;-85
2023/01/15 16:52:50;;;;;;;8.90;5.73;;;7.20;92.90;;;;;;5773971;24;20240;-82
2023/01/15 18:49:04;;;;;;;14.37;10.30;;;6.20;99.90;;;;;;6032298;23;20905;-83
2023/01/15 19:19:15;;;;;;;12.77;8.37;;;6.20;99.90;;;;;;5961212;23;20218;-85
2023/01/15 20:15:44;;;;;;;6.37;5.10;;;5.50;99.90;;;;;;5946604;23;20267;-84
2023/01/15 20:46:07;;;;;;;10.83;8.73;;;5.40;99.90;;;;;;5905734;23;20797;-83
2023/01/15 21:16:15;;;;;;;14.57;10.57;;;5.30;99.90;;;;;;6012877;23;20254;-84
2023/01/15 21:36:13;;;;;;;11.10;7.70;;;5.60;99.90;;;;;;5731076;24;20486;-85
2023/01/15 22:06:33;;;;;;;8.20;6.90;;;5.70;99.90;;;;;;5747336;24;20359;-87
2023/01/15 22:22:20;;;;;;;11.20;6.60;;;5.70;99.90;;;;;;5630670;24;20206;-84
2023/01/15 22:57:41;;;;;;;6.20;5.10;;;5.60;99.90;;;;;;5929896;23;20213;-85
2023/01/15 23:28:19;;;;;;;6.93;4.53;;;5.40;99.90;;;;;;5950673;23;20193;-82
2023/01/15 23:58:32;;;;;;;6.50;5.30;;;5.10;99.90;;;;;;6065651;23;20174;-85
